Terminal Aerodrome Forecast
Issued by NWS

Home | Current Version | Previous Version | Text Only | Print | Product List | Glossary On
Versions: 1 2 3 4 5 6 7 8 9 10 11 12 13 14 15 16 17 18 19 20 21 22 23
434
FTUS41 KCAR 261925 AAA
TAFPQI
TAF AMD
KPQI 261925Z 2619/2718 33011KT P6SM VCSH BKN060
     FM262200 32006KT P6SM SCT050
     FM270600 13006KT P6SM BKN025
     FM271100 15007KT P6SM BKN012=

USA.gov is the U.S. government's official web portal to all federal, state and local government web resources and services.